Diretta Meteo Milano-Linate, Italiagiovedì 19 aprile ore 12:50

Mappa
Sereno 23 °C Sereno 24 Ore: T.min 12 T.max 25
Ponente Sud-Est Km/h 11.1 Punto di rugiada: 9 °C Umidità: 40% Visibilità: 10 Km
Il sole sorge alle: 06:28 Il sole tramonta alle: 20:15
19 Aprile 2018 12:50 tempo osservato: Sereno Sereno 23 40 1028 vento: Nord SE 11.1
19 Aprile 2018 12:20 tempo osservato: Sereno Sereno 22 40 1029 vento: Nord SE 11.1
19 Aprile 2018 11:20 tempo osservato: Sereno Sereno 21 46 1029 vento: Nord E/SE 13
19 Aprile 2018 10:20 tempo osservato: Sereno Sereno 20 56 1029 vento: Nord E 9.3
19 Aprile 2018 09:20 tempo osservato: Sereno Sereno 18 63 1029 vento: Nord E 9.3
19 Aprile 2018 08:20 tempo osservato: Sereno Sereno 17 67 1029 vento: Nord N 0
19 Aprile 2018 07:20 tempo osservato: Sereno Sereno 14 76 1029 vento: Nord N 3.7
19 Aprile 2018 06:50 tempo osservato: Sereno Sereno 13 81 1028 vento: Nord N 3.7
19 Aprile 2018 06:20 tempo osservato: Sereno Sereno 13 81 1028 vento: Nord N 5.5
19 Aprile 2018 05:50 tempo osservato: Sereno Sereno 12 93 1028 vento: Nord N 1.8
19 Aprile 2018 05:20 tempo osservato: Sereno Sereno 13 93 1028 vento: Nord N 1.8
19 Aprile 2018 04:20 tempo osservato: Sereno Sereno 14 87 1028 vento: Nord N 3.7
19 Aprile 2018 03:20 tempo osservato: Sereno Sereno 13 87 1028 vento: Nord N 0
19 Aprile 2018 02:50 tempo osservato: Sereno Sereno 14 82 1028 vento: Nord N 5.5
19 Aprile 2018 02:20 tempo osservato: Sereno Sereno 14 82 1028 vento: Nord N 7.4
19 Aprile 2018 00:20 tempo osservato: Sereno Sereno 16 77 1029 vento: Nord N 3.7
18 Aprile 2018 23:20 tempo osservato: Sereno Sereno 17 67 1028 vento: Nord N 3.7
18 Aprile 2018 22:20 tempo osservato: Sereno Sereno 18 63 1028 vento: Nord N 0
18 Aprile 2018 21:20 tempo osservato: Sereno Sereno 18 63 1028 vento: Nord N 5.5
18 Aprile 2018 20:50 tempo osservato: Sereno Sereno 19 55 1027 vento: Nord S 7.4
18 Aprile 2018 20:20 tempo osservato: Sereno Sereno 19 59 1027 vento: Nord S 7.4
18 Aprile 2018 19:50 tempo osservato: Sereno Sereno 21 49 1027 vento: Nord S 9.3
18 Aprile 2018 19:20 tempo osservato: Sereno Sereno 22 46 1027 vento: Nord S/SE 11.1
18 Aprile 2018 18:20 tempo osservato: Sereno Sereno 23 40 1027 vento: Nord S 11.1
18 Aprile 2018 17:50 tempo osservato: Sereno Sereno 24 33 1027 vento: Nord S/SE 13
18 Aprile 2018 17:20 tempo osservato: Sereno Sereno 25 33 1027 vento: Nord S/SE 7.4
18 Aprile 2018 16:50 tempo osservato: Sereno Sereno 24 41 1027 vento: Nord S 9.3
18 Aprile 2018 16:20 tempo osservato: Poco Nuvoloso Poco Nuvoloso 25 41 1027 vento: Nord S/SE 7.4
18 Aprile 2018 15:50 tempo osservato: Poco Nuvoloso Poco Nuvoloso 25 41 1027 vento: Nord S 7.4
18 Aprile 2018 15:20 tempo osservato: Poco Nuvoloso Poco Nuvoloso 24 43 1027 vento: Nord N 5.5
18 Aprile 2018 14:50 tempo osservato: Poco Nuvoloso Poco Nuvoloso 24 43 1028 vento: Nord N 5.5
18 Aprile 2018 14:20 tempo osservato: Poco Nuvoloso Poco Nuvoloso 24 50 1028 vento: Nord E 7.4
18 Aprile 2018 13:50 tempo osservato: Sereno Sereno 23 53 1028 vento: Nord E 7.4